Portada
METAR-TAF:

METAR-TAF

Aeroports :

Lampang, Tailàndia

latitud: 18-17N, longitud: 099-31E, altitud: 241 m

Observació

L'informe es va fer fa 21 minuts, a les 23:00 UTC
Vent calma
Temperatura 19°C
Humitat 88%
Pressió 1015 hPa
Visibilitat: 5000 m
boirina

METAR: VTCL 202300Z 00000KT 5000 BR NSC 19/17 Q1015 BECMG 2000 BR

Hora: 06:21 (23:21 UTC)

Pronòstic

L'informe es va fer fa 6 hores i 21 minuts, a les 17:00 UTC
Pronòstic vàlid del 20 a les 18 UTC al 21 a les 18 UTC
Vent 5 kt del Sud-Est
Visibilitat: 7000 m
Escasses núvols a una alçada de 3500 ft
Evolucionant progressivament
l' 20 a les 23 UTC al 21 a les 01 UTC
Visibilitat: 2000 m
boirina
Evolucionant progressivament
l' 21 a les 03 UTC al 21 a les 05 UTC
Visibilitat: 7000 m

TAF: VTCL 201700Z 2018/2118 14005KT 7000 FEW035 BECMG 2023/2101 2000 BR BECMG 2103/2105 7000 NSW

Observacions i pronòstics meteorològics de més de 4000 aeroports (METAR i TAF).

Les estacions disponibles són els punts grocs i vermells al mapa.

Posi el ratolí al punt desitjat per veure el nom de l'estació.

Feu clic per veure les observacions i els pronòstics meteorològics.

Per canviar el mapa: feu clic els botons verds amb una creu de color negre per apropar; al botó verd amb un guió per allunyar la imatge; o en les fletxes verdes per a mapes adjacents.


METAR-TAF: